createdAt,value
2023-03-07T00:04:47.145Z,5.28
2023-03-07T00:12:22.564Z,7.07
2023-03-07T00:19:56.458Z,6.13
2023-03-07T00:27:34.171Z,6.72
2023-03-07T00:35:08.808Z,7.43
2023-03-07T00:42:44.189Z,8.07
2023-03-07T00:50:18.310Z,9.10
2023-03-07T01:05:27.629Z,8.65
2023-03-07T01:13:03.054Z,11.13
2023-03-07T01:20:38.338Z,10.13
2023-03-07T01:28:15.842Z,11.10
2023-03-07T01:35:49.901Z,12.38
2023-03-07T01:51:00.173Z,13.90
2023-03-07T02:06:12.512Z,15.52
2023-03-07T02:13:47.820Z,15.85
2023-03-07T02:21:31.837Z,17.02
2023-03-07T02:29:07.605Z,18.67
2023-03-07T02:36:41.839Z,17.42
2023-03-07T02:44:17.331Z,17.02
2023-03-07T02:51:51.383Z,18.40
2023-03-07T02:59:26.722Z,16.90
2023-03-07T03:07:00.668Z,19.05
2023-03-07T03:14:36.167Z,17.85
2023-03-07T03:22:09.924Z,17.85
2023-03-07T03:29:45.478Z,19.65
2023-03-07T03:37:19.666Z,18.33
2023-03-07T04:00:08.469Z,19.08
2023-03-07T04:07:42.455Z,19.02
2023-03-07T04:15:17.810Z,18.17
2023-03-07T04:22:51.780Z,16.50
2023-03-07T04:30:27.384Z,18.17
2023-03-07T04:38:01.520Z,16.75
2023-03-07T04:53:12.150Z,16.77
2023-03-07T05:00:47.395Z,17.33
2023-03-07T05:08:21.767Z,17.38
2023-03-07T05:15:58.650Z,16.95
2023-03-07T05:23:32.523Z,18.02
2023-03-07T05:31:08.321Z,16.75
2023-03-07T05:38:42.324Z,16.83
2023-03-07T05:46:18.191Z,18.17
2023-03-07T05:53:52.314Z,16.80
2023-03-07T06:09:01.530Z,16.08
2023-03-07T06:16:36.913Z,15.40
2023-03-07T06:24:10.851Z,16.00
2023-03-07T06:31:46.146Z,16.25
2023-03-07T06:39:21.494Z,15.35
2023-03-07T06:46:56.875Z,16.20
2023-03-07T06:54:30.829Z,14.48
2023-03-07T07:02:07.093Z,14.90
2023-03-07T07:09:41.317Z,15.15
2023-03-07T07:32:26.266Z,14.50
2023-03-07T07:40:00.499Z,12.10
2023-03-07T07:47:35.833Z,14.18
2023-03-07T07:55:13.815Z,12.43
2023-03-07T08:10:44.213Z,12.70
2023-03-07T08:18:19.583Z,12.70
2023-03-07T08:25:53.836Z,11.27
2023-03-07T08:41:04.028Z,11.88
2023-03-07T08:48:39.482Z,11.93
2023-03-07T08:56:15.707Z,10.95
2023-03-07T09:03:51.061Z,11.38
2023-03-07T09:11:26.812Z,10.93
2023-03-07T09:19:02.707Z,10.77
2023-03-07T09:26:36.621Z,9.75
2023-03-07T09:34:13.152Z,9.87
2023-03-07T09:42:00.554Z,9.13
2023-03-07T09:49:45.717Z,9.02
2023-03-07T09:57:25.609Z,7.05
2023-03-07T10:05:10.992Z,7.05
2023-03-07T10:13:00.456Z,6.68
2023-03-07T10:20:46.847Z,7.00
2023-03-07T10:28:25.081Z,7.05
2023-03-07T10:36:07.385Z,6.55
2023-03-07T10:43:41.807Z,5.78
2023-03-07T10:51:31.103Z,6.72
2023-03-07T10:59:10.795Z,5.90
2023-03-07T11:06:54.252Z,6.22
2023-03-07T11:14:30.968Z,4.05
2023-03-07T11:22:18.057Z,3.05
2023-03-07T11:30:26.429Z,3.30
2023-03-07T11:38:08.737Z,3.10
2023-03-07T11:45:52.151Z,2.78
2023-03-07T11:54:02.544Z,2.40
2023-03-07T12:01:48.009Z,2.30
2023-03-07T12:09:35.880Z,1.65
2023-03-07T12:17:24.122Z,1.23
2023-03-07T12:25:17.036Z,1.02
2023-03-07T12:32:52.816Z,0.70
2023-03-07T12:40:35.191Z,0.90
2023-03-07T12:48:19.103Z,1.17
2023-03-07T12:55:58.299Z,0.68
2023-03-07T13:03:38.734Z,1.15
2023-03-07T13:11:21.868Z,1.13
2023-03-07T13:18:55.819Z,1.17
2023-03-07T13:26:31.408Z,1.60
2023-03-07T13:59:05.316Z,2.20
2023-03-07T14:06:42.266Z,2.22
2023-03-07T14:14:43.693Z,2.30
2023-03-07T14:22:28.281Z,1.77
2023-03-07T14:37:55.020Z,1.63
2023-03-07T14:45:38.732Z,1.50
2023-03-07T14:53:20.713Z,1.10
2023-03-07T15:01:04.040Z,1.08
2023-03-07T15:08:38.489Z,1.08
2023-03-07T15:23:55.587Z,1.25
2023-03-07T15:31:50.060Z,1.15
2023-03-07T15:39:34.824Z,1.03
2023-03-07T15:47:18.061Z,1.67
2023-03-07T15:54:53.673Z,2.03
2023-03-07T16:02:41.388Z,1.85
2023-03-07T16:10:15.705Z,1.23
2023-03-07T16:25:46.417Z,1.63
2023-03-07T16:33:22.125Z,1.30
2023-03-07T16:40:56.058Z,1.70
2023-03-07T16:48:31.640Z,1.40
2023-03-07T16:56:06.029Z,1.73
2023-03-07T17:11:19.733Z,1.73
2023-03-07T17:18:55.399Z,1.52
2023-03-07T17:26:32.888Z,2.03
2023-03-07T17:34:08.309Z,1.58
2023-03-07T17:49:36.385Z,1.83
2023-03-07T17:57:10.996Z,2.20
2023-03-07T18:04:46.384Z,1.65
2023-03-07T18:12:20.343Z,1.98
2023-03-07T18:19:56.012Z,1.90
2023-03-07T18:27:30.046Z,1.55
2023-03-07T18:35:05.998Z,2.42
2023-03-07T18:42:40.401Z,2.05
2023-03-07T18:57:49.390Z,1.92
2023-03-07T19:05:24.665Z,2.63
2023-03-07T19:12:58.599Z,3.00
2023-03-07T19:20:34.361Z,2.60
2023-03-07T19:28:08.115Z,3.20
2023-03-07T19:35:43.603Z,3.63
2023-03-07T19:43:17.462Z,3.38
2023-03-07T19:50:53.982Z,3.83
2023-03-07T19:58:27.908Z,3.22
2023-03-07T20:06:03.611Z,3.55
2023-03-07T20:13:37.606Z,4.05
2023-03-07T20:21:14.584Z,4.03
2023-03-07T20:28:48.596Z,4.22
2023-03-07T20:36:27.881Z,3.95
2023-03-07T20:44:04.511Z,4.57
2023-03-07T20:51:40.882Z,3.78
2023-03-07T21:07:10.127Z,3.10
2023-03-07T21:14:44.126Z,3.63
2023-03-07T21:22:19.418Z,3.10
2023-03-07T21:29:53.554Z,3.15
2023-03-07T21:37:28.791Z,3.03
2023-03-07T21:45:02.910Z,2.65
2023-03-07T21:52:38.183Z,3.08
2023-03-07T22:00:15.391Z,2.25
2023-03-07T22:07:51.842Z,1.52
2023-03-07T22:15:25.952Z,1.90
2023-03-07T22:23:01.152Z,1.52
2023-03-07T22:38:29.149Z,1.40
2023-03-07T22:46:03.980Z,1.70
2023-03-07T22:53:39.434Z,1.58
2023-03-07T23:01:14.571Z,1.45
2023-03-07T23:08:51.988Z,1.23
2023-03-07T23:16:27.652Z,1.20
2023-03-07T23:24:04.920Z,1.10
2023-03-07T23:39:33.288Z,1.00
2023-03-07T23:47:07.638Z,1.17
2023-03-07T23:54:45.707Z,0.90
